Time;durP1;ratioP1;P1;durP2;ratioP2;P2;SDS_P1;SDS_P2;PMS_P1;PMS_P2;Temp;Humidity;BMP_temperature;BMP_pressure;BME280_temperature;BME280_humidity;BME280_pressure;Samples;Min_cycle;Max_cycle;Signal;HPM_P1;HPM_P2
2023/12/27 00:01:19;;;;;;;1.03;1.03;;;;;;;9.85;nan;60740.16;4994253;28;20260;-64
2023/12/27 00:03:44;;;;;;;1.40;1.30;;;;;;;9.82;nan;60780.16;4993654;28;20684;-66
2023/12/27 00:06:10;;;;;;;1.20;1.20;;;;;;;9.93;nan;60800.75;4994030;28;20180;-64
2023/12/27 00:08:35;;;;;;;1.17;1.17;;;;;;;9.75;nan;60747.34;4994174;28;20187;-63
2023/12/27 00:11:04;;;;;;;1.37;1.20;;;;;;;10.07;nan;60805.72;4997085;28;20197;-63
2023/12/27 00:13:29;;;;;;;1.10;1.10;;;;;;;9.83;nan;60725.72;4994626;28;20188;-65
2023/12/27 00:15:54;;;;;;;1.88;1.77;;;;;;;9.92;nan;60771.00;4993719;28;20176;-61
2023/12/27 00:18:20;;;;;;;1.40;1.30;;;;;;;9.91;nan;60874.44;4993242;28;20204;-66
2023/12/27 00:20:47;;;;;;;1.20;1.20;;;;;;;9.86;nan;60759.69;4994026;28;20775;-66
2023/12/27 00:23:13;;;;;;;1.67;1.58;;;;;;;9.69;nan;60766.66;4994013;28;20230;-63
2023/12/27 00:25:38;;;;;;;1.20;1.20;;;;;;;9.74;nan;60720.72;4993990;28;20572;-65
2023/12/27 00:28:04;;;;;;;1.10;1.10;;;;;;;9.64;nan;60740.06;4993418;28;20177;-64
2023/12/27 00:30:30;;;;;;;1.40;1.30;;;;;;;9.49;nan;60728.84;4993234;28;20248;-65
2023/12/27 00:32:56;;;;;;;1.53;1.43;;;;;;;9.66;nan;60732.66;4993376;28;20222;-65
2023/12/27 00:35:21;;;;;;;2.37;2.17;;;;;;;9.63;nan;60744.59;4993726;28;20696;-64
2023/12/27 00:37:47;;;;;;;1.30;1.20;;;;;;;9.68;nan;60764.97;4993254;28;20187;-64
2023/12/27 00:40:12;;;;;;;1.50;1.40;;;;;;;9.74;nan;60794.66;4993393;28;20187;-65
2023/12/27 00:42:38;;;;;;;1.03;1.03;;;;;;;9.68;nan;60727.28;4993346;28;20165;-65
2023/12/27 00:45:04;;;;;;;1.40;1.30;;;;;;;9.83;nan;60788.94;4993414;28;20203;-62
2023/12/27 00:47:29;;;;;;;1.10;1.10;;;;;;;9.74;nan;60764.63;4992865;28;20533;-66
2023/12/27 00:49:55;;;;;;;1.40;1.30;;;;;;;9.53;nan;60743.00;4993162;28;20741;-65
2023/12/27 00:52:20;;;;;;;1.10;1.10;;;;;;;9.66;nan;60714.28;4993576;28;20679;-64
2023/12/27 00:54:46;;;;;;;1.35;1.30;;;;;;;9.57;nan;60688.88;4993588;28;20177;-63
2023/12/27 00:57:11;;;;;;;1.20;1.20;;;;;;;9.40;nan;60690.16;4993260;28;20183;-65
2023/12/27 00:59:36;;;;;;;1.85;1.50;;;;;;;9.69;nan;60779.41;4992791;28;20664;-66
2023/12/27 01:02:02;;;;;;;2.03;1.83;;;;;;;9.53;nan;60748.66;4992814;28;20191;-66
2023/12/27 01:04:28;;;;;;;1.08;1.08;;;;;;;9.60;nan;60771.25;4993088;28;20173;-66
2023/12/27 01:06:53;;;;;;;1.20;1.10;;;;;;;9.51;nan;60738.75;4993307;28;20173;-66
2023/12/27 01:09:19;;;;;;;1.20;1.10;;;;;;;9.45;nan;60716.72;4992725;28;20184;-65
2023/12/27 01:11:44;;;;;;;1.40;1.30;;;;;;;9.19;nan;60707.91;4992682;28;20708;-65
2023/12/27 01:14:09;;;;;;;1.02;1.02;;;;;;;9.62;nan;60761.31;4997109;28;20183;-64
2023/12/27 01:16:35;;;;;;;1.45;1.35;;;;;;;9.60;nan;60725.38;4992701;28;20595;-64
2023/12/27 01:19:00;;;;;;;1.67;1.58;;;;;;;9.67;nan;60797.53;4993115;28;20232;-67
2023/12/27 01:21:26;;;;;;;1.90;1.75;;;;;;;9.48;nan;60666.00;4992707;28;20557;-62
2023/12/27 01:23:51;;;;;;;1.17;1.17;;;;;;;9.62;nan;60735.25;4992815;28;20180;-64
2023/12/27 01:26:17;;;;;;;1.13;1.13;;;;;;;9.17;nan;60677.59;4992540;28;20180;-64
2023/12/27 01:28:42;;;;;;;1.33;1.27;;;;;;;9.41;nan;60694.38;4992067;28;20272;-63
2023/12/27 01:31:09;;;;;;;1.77;1.43;;;;;;;9.43;nan;60704.28;4991983;28;20535;-66
2023/12/27 01:33:35;;;;;;;1.27;1.20;;;;;;;8.99;nan;60828.03;4992490;28;20659;-64
2023/12/27 01:36:06;;;;;;;1.80;1.57;;;;;;;8.93;nan;60693.94;5008011;28;20177;-66
2023/12/27 01:38:31;;;;;;;1.20;1.10;;;;;;;8.85;nan;60649.88;4992673;28;20557;-62
2023/12/27 01:40:56;;;;;;;1.43;1.33;;;;;;;8.72;nan;60676.00;4992415;28;20212;-62
2023/12/27 01:43:22;;;;;;;1.47;1.37;;;;;;;8.72;nan;60655.63;4992254;28;20180;-67
2023/12/27 01:45:50;;;;;;;1.40;1.30;;;;;;;9.00;nan;60757.84;4992476;28;20231;-66
2023/12/27 01:48:20;;;;;;;1.07;1.07;;;;;;;8.95;nan;60701.28;4992240;28;20180;-66
2023/12/27 01:50:46;;;;;;;1.73;1.63;;;;;;;8.93;nan;60706.69;4992078;28;20235;-63
2023/12/27 01:53:11;;;;;;;1.33;1.23;;;;;;;8.89;nan;60679.81;4992198;28;20259;-67
2023/12/27 01:55:37;;;;;;;1.30;1.20;;;;;;;8.86;nan;60677.03;5007197;28;20659;-65
2023/12/27 01:58:03;;;;;;;1.10;1.10;;;;;;;8.83;nan;60690.91;4991784;28;20164;-65
2023/12/27 02:00:28;;;;;;;1.20;1.20;;;;;;;8.65;nan;60696.13;4991908;28;20636;-65
2023/12/27 02:02:55;;;;;;;1.50;1.40;;;;;;;8.88;nan;60645.03;4991926;28;20177;-62
2023/12/27 02:05:20;;;;;;;1.40;1.30;;;;;;;8.58;nan;60660.28;4992285;28;20659;-63
2023/12/27 02:07:46;;;;;;;1.13;1.10;;;;;;;8.95;nan;60699.31;4992176;28;20255;-64
2023/12/27 02:10:11;;;;;;;1.20;1.20;;;;;;;9.20;nan;60712.13;4991886;28;20218;-65
2023/12/27 02:12:37;;;;;;;5.97;1.57;;;;;;;9.46;nan;60705.09;4991797;28;20254;-65
2023/12/27 02:15:02;;;;;;;1.55;1.45;;;;;;;10.02;nan;60728.66;4992607;28;20219;-62
2023/12/27 02:17:29;;;;;;;1.20;1.20;;;;;;;9.93;nan;60779.78;4994583;28;20718;-65
2023/12/27 02:19:55;;;;;;;1.10;1.10;;;;;;;10.14;nan;60951.41;4991797;28;20180;-64
2023/12/27 02:22:25;;;;;;;1.50;1.42;;;;;;;10.22;nan;60982.88;4991763;28;20181;-65
2023/12/27 02:24:54;;;;;;;1.10;1.10;;;;;;;10.13;nan;60813.03;4992139;28;20165;-67
2023/12/27 02:27:20;;;;;;;1.70;1.60;;;;;;;10.17;nan;60806.78;4311144;28;20999;-64
2023/12/27 02:29:45;;;;;;;1.80;1.58;;;;;;;10.29;nan;60794.75;4992152;28;20204;-64
2023/12/27 02:32:11;;;;;;;1.10;1.10;;;;;;;10.25;nan;60795.38;4991435;28;20232;-62
2023/12/27 02:34:36;;;;;;;1.27;1.17;;;;;;;10.46;nan;60829.19;4991965;28;20183;-66
2023/12/27 02:37:02;;;;;;;3.67;1.48;;;;;;;10.68;nan;60811.97;4991592;28;20164;-63
2023/12/27 02:39:27;;;;;;;1.15;1.15;;;;;;;10.50;nan;61006.78;4992424;28;20315;-66
2023/12/27 02:41:53;;;;;;;1.27;1.23;;;;;;;10.70;nan;60849.97;4994901;28;20184;-64
2023/12/27 02:44:18;;;;;;;1.55;1.45;;;;;;;10.40;nan;60807.16;4996250;28;20177;-65
2023/12/27 02:46:43;;;;;;;1.17;1.13;;;;;;;10.66;nan;60996.19;4996337;28;20602;-66
2023/12/27 02:49:09;;;;;;;2.83;1.40;;;;;;;10.76;nan;61020.81;4996383;28;20192;-64
2023/12/27 02:51:34;;;;;;;1.35;1.25;;;;;;;10.76;nan;60838.84;4996726;28;20203;-63
2023/12/27 02:54:00;;;;;;;1.00;1.00;;;;;;;10.39;nan;60818.78;4996679;28;20176;-64
2023/12/27 02:56:25;;;;;;;1.23;1.23;;;;;;;10.24;nan;60840.19;4996224;28;20259;-65
2023/12/27 02:58:50;;;;;;;1.60;1.50;;;;;;;10.46;nan;60808.78;4620682;28;20852;-65
2023/12/27 03:01:16;;;;;;;1.50;1.40;;;;;;;10.25;nan;60797.94;4897204;28;20216;-64
2023/12/27 03:03:41;;;;;;;1.35;1.27;;;;;;;10.44;nan;60826.41;4997472;28;20221;-62
2023/12/27 03:06:07;;;;;;;1.45;1.35;;;;;;;10.32;nan;60810.34;4997841;28;20539;-65
2023/12/27 03:08:35;;;;;;;1.33;1.25;;;;;;;10.30;nan;60816.31;4996745;28;20610;-64
2023/12/27 03:11:00;;;;;;;1.17;1.17;;;;;;;10.30;nan;60729.53;4997053;28;20196;-66
2023/12/27 03:13:26;;;;;;;1.15;1.13;;;;;;;10.06;nan;60779.66;4997395;28;20184;-66
2023/12/27 03:15:51;;;;;;;1.20;1.20;;;;;;;10.05;nan;60781.06;4996709;28;20251;-64
2023/12/27 03:18:16;;;;;;;2.08;1.40;;;;;;;10.09;nan;60767.69;4997434;28;20172;-64
2023/12/27 03:20:42;;;;;;;1.98;1.48;;;;;;;10.25;nan;60805.03;4996543;28;20658;-66
2023/12/27 03:23:07;;;;;;;1.17;1.17;;;;;;;9.94;nan;60770.69;4996580;28;20180;-63
2023/12/27 03:25:32;;;;;;;1.73;1.48;;;;;;;10.09;nan;60797.75;4996403;28;20177;-66
2023/12/27 03:27:58;;;;;;;1.50;1.40;;;;;;;9.66;nan;60762.72;4993888;28;20184;-63
2023/12/27 03:30:23;;;;;;;1.33;1.23;;;;;;;9.29;nan;60706.94;4994661;28;20180;-66
2023/12/27 03:32:48;;;;;;;1.10;1.10;;;;;;;9.36;nan;60729.53;4994663;28;20208;-64
2023/12/27 03:35:14;;;;;;;1.43;1.33;;;;;;;9.50;nan;60714.69;4995084;28;20629;-65
2023/12/27 03:37:39;;;;;;;1.00;1.00;;;;;;;9.30;nan;60796.69;4994406;28;20268;-65
2023/12/27 03:40:05;;;;;;;1.07;1.07;;;;;;;9.21;nan;60692.84;4994805;28;20199;-65
2023/12/27 03:42:31;;;;;;;1.50;1.40;;;;;;;9.08;nan;60662.41;4995038;28;20200;-62
2023/12/27 03:44:56;;;;;;;1.10;1.10;;;;;;;9.23;nan;60710.41;4994897;28;20596;-64
2023/12/27 03:47:22;;;;;;;1.13;1.13;;;;;;;9.56;nan;60762.25;4994776;28;20250;-65
2023/12/27 03:49:48;;;;;;;1.23;1.17;;;;;;;9.36;nan;60695.84;4994755;28;20177;-63
2023/12/27 03:52:13;;;;;;;1.10;1.10;;;;;;;9.52;nan;60688.34;4994033;28;20621;-64
2023/12/27 03:54:40;;;;;;;1.80;1.67;;;;;;;9.67;nan;60697.53;4994252;28;20208;-63
2023/12/27 03:57:05;;;;;;;1.48;1.38;;;;;;;9.64;nan;60783.97;4994178;28;20181;-66
2023/12/27 03:59:30;;;;;;;1.10;1.10;;;;;;;9.81;nan;60801.97;4994839;28;20176;-64
2023/12/27 04:01:56;;;;;;;1.50;1.40;;;;;;;9.69;nan;60919.66;4994357;28;20181;-63
2023/12/27 04:04:21;;;;;;;1.40;1.30;;;;;;;9.80;nan;60742.75;4994135;28;20632;-66
2023/12/27 04:06:46;;;;;;;1.40;1.30;;;;;;;9.77;nan;60706.22;4994212;28;20260;-65
2023/12/27 04:09:12;;;;;;;1.17;1.17;;;;;;;9.88;nan;60937.97;4994055;28;20556;-64
2023/12/27 04:11:45;;;;;;;1.10;1.10;;;;;;;9.91;nan;60915.25;4993869;28;20201;-64
2023/12/27 04:14:14;;;;;;;1.50;1.40;;;;;;;10.01;nan;60781.69;4993888;28;20195;-64
2023/12/27 04:16:39;;;;;;;1.43;1.33;;;;;;;10.08;nan;60783.88;4993928;28;20640;-65
2023/12/27 04:19:05;;;;;;;1.40;1.30;;;;;;;10.36;nan;60828.16;4993811;28;20176;-67
2023/12/27 04:21:30;;;;;;;1.20;1.20;;;;;;;10.27;nan;60812.34;4996593;28;20262;-66
2023/12/27 04:23:56;;;;;;;1.48;1.38;;;;;;;10.30;nan;60818.31;4993964;28;20172;-66
2023/12/27 04:26:22;;;;;;;1.13;1.13;;;;;;;10.30;nan;60820.84;4994014;28;20600;-65
2023/12/27 04:28:47;;;;;;;1.58;1.30;;;;;;;10.17;nan;60745.56;4987750;28;20588;-65
2023/12/27 04:31:13;;;;;;;1.85;1.75;;;;;;;10.07;nan;60765.47;4746163;28;20225;-66
2023/12/27 04:33:38;;;;;;;1.30;1.20;;;;;;;10.05;nan;60781.06;4993681;28;20181;-62
2023/12/27 04:36:05;;;;;;;1.50;1.40;;;;;;;9.95;nan;60808.09;4847830;28;21316;-65
2023/12/27 04:38:30;;;;;;;1.30;1.20;;;;;;;9.81;nan;60891.25;4531332;28;20189;-62
2023/12/27 04:40:56;;;;;;;1.20;1.20;;;;;;;9.57;nan;60808.69;4993719;28;20238;-66
2023/12/27 04:43:21;;;;;;;1.45;1.35;;;;;;;9.73;nan;60773.69;4993423;28;20180;-64
2023/12/27 04:45:48;;;;;;;1.42;1.33;;;;;;;9.53;nan;60741.00;4993495;28;20710;-64
2023/12/27 04:48:14;;;;;;;1.23;1.20;;;;;;;9.44;nan;60737.97;4993294;28;20239;-64
2023/12/27 04:50:39;;;;;;;1.30;1.20;;;;;;;9.40;nan;60853.84;4993076;28;20177;-66
2023/12/27 04:53:05;;;;;;;1.63;1.53;;;;;;;9.37;nan;60679.69;4993160;28;20185;-63
2023/12/27 04:55:30;;;;;;;1.10;1.10;;;;;;;9.19;nan;60677.31;4993494;28;20196;-66
2023/12/27 04:57:56;;;;;;;1.70;1.60;;;;;;;8.92;nan;60688.31;4993288;28;20189;-64
2023/12/27 05:00:22;;;;;;;1.40;1.30;;;;;;;9.11;nan;60730.03;4992981;28;20260;-64
2023/12/27 05:02:48;;;;;;;1.38;1.30;;;;;;;9.07;nan;60679.09;4991031;28;20326;-67
2023/12/27 05:05:14;;;;;;;1.67;1.57;;;;;;;9.06;nan;60706.03;4987764;28;20553;-63
2023/12/27 05:07:39;;;;;;;1.10;1.10;;;;;;;8.78;nan;60688.41;4992477;28;20180;-67
2023/12/27 05:10:05;;;;;;;1.53;1.43;;;;;;;8.87;nan;60687.78;4992690;28;20636;-63
2023/12/27 05:12:30;;;;;;;1.10;1.10;;;;;;;8.88;nan;60628.31;4992393;28;20208;-67
2023/12/27 05:14:55;;;;;;;1.10;1.10;;;;;;;8.77;nan;60625.63;4992942;28;20188;-63
2023/12/27 05:17:22;;;;;;;1.10;1.10;;;;;;;8.91;nan;60824.13;4992851;28;20196;-66
2023/12/27 05:19:47;;;;;;;1.20;1.20;;;;;;;9.03;nan;60743.97;4991475;28;20184;-67
2023/12/27 05:22:12;;;;;;;1.57;1.47;;;;;;;9.08;nan;60680.81;4996336;28;20735;-65
2023/12/27 05:24:38;;;;;;;1.40;1.30;;;;;;;8.90;nan;60808.28;4992461;28;20184;-63
2023/12/27 05:27:03;;;;;;;1.30;1.23;;;;;;;9.10;nan;60720.72;4992810;28;20177;-66
2023/12/27 05:29:29;;;;;;;1.40;1.30;;;;;;;9.08;nan;60680.22;4992516;28;20263;-66
2023/12/27 05:31:54;;;;;;;1.40;1.30;;;;;;;9.17;nan;60672.50;4991929;28;20242;-67
2023/12/27 05:34:19;;;;;;;1.37;1.27;;;;;;;9.01;nan;60693.31;4992211;28;20177;-65
2023/12/27 05:36:45;;;;;;;1.60;1.50;;;;;;;9.28;nan;60679.78;4992719;28;20188;-63
2023/12/27 05:39:12;;;;;;;1.20;1.10;;;;;;;8.97;nan;60688.81;4991864;28;20180;-66
2023/12/27 05:41:37;;;;;;;1.00;1.00;;;;;;;9.39;nan;60745.09;4992531;28;20169;-64
2023/12/27 05:44:03;;;;;;;1.10;1.10;;;;;;;9.13;nan;60678.22;4992235;28;20177;-63
2023/12/27 05:46:33;;;;;;;1.83;1.40;;;;;;;9.45;nan;60741.66;4992045;28;20177;-63
2023/12/27 05:48:58;;;;;;;1.40;1.30;;;;;;;9.31;nan;60714.28;4992250;28;20196;-64
2023/12/27 05:51:23;;;;;;;1.57;1.47;;;;;;;9.48;nan;60717.53;4991868;28;20204;-67
2023/12/27 05:53:49;;;;;;;1.77;1.67;;;;;;;9.49;nan;60744.16;4991932;28;20684;-64
2023/12/27 05:56:14;;;;;;;1.50;1.40;;;;;;;9.45;nan;60760.06;4992400;28;20565;-65
2023/12/27 05:58:40;;;;;;;1.10;1.10;;;;;;;9.19;nan;60677.31;4991846;28;20218;-62
2023/12/27 06:01:05;;;;;;;1.13;1.10;;;;;;;9.17;nan;60705.63;4992032;28;20181;-66
2023/12/27 06:03:30;;;;;;;1.50;1.40;;;;;;;9.31;nan;60696.44;4991753;28;20230;-67
2023/12/27 06:05:56;;;;;;;1.50;1.40;;;;;;;9.31;nan;60704.09;4992030;28;20207;-64
2023/12/27 06:08:21;;;;;;;1.50;1.40;;;;;;;9.26;nan;60692.81;4991652;28;20234;-64
2023/12/27 06:10:47;;;;;;;1.63;1.53;;;;;;;9.05;nan;60694.69;4992071;28;20169;-66
2023/12/27 06:13:12;;;;;;;1.17;1.07;;;;;;;9.21;nan;60695.41;4992041;28;20173;-64
2023/12/27 06:15:38;;;;;;;2.30;1.40;;;;;;;9.09;nan;60715.03;4991464;28;20168;-66
2023/12/27 06:18:03;;;;;;;1.10;1.10;;;;;;;8.93;nan;60709.78;4991459;28;20199;-63
2023/12/27 06:20:29;;;;;;;1.33;1.23;;;;;;;9.17;nan;60716.38;4992006;28;20549;-63
2023/12/27 06:22:54;;;;;;;1.80;1.70;;;;;;;9.22;nan;60680.69;4991397;28;20583;-66
2023/12/27 06:25:19;;;;;;;1.10;1.10;;;;;;;9.15;nan;60858.81;4995077;28;20212;-66
2023/12/27 06:27:45;;;;;;;1.60;1.50;;;;;;;9.16;nan;60908.34;4991648;28;20212;-66
2023/12/27 06:30:10;;;;;;;1.10;1.10;;;;;;;9.25;nan;60722.25;4991601;28;20264;-65
2023/12/27 06:32:37;;;;;;;1.80;1.70;;;;;;;9.34;nan;60729.84;4991548;28;20311;-65
2023/12/27 06:35:03;;;;;;;1.20;1.20;;;;;;;9.42;nan;60664.38;4991481;28;20173;-66
2023/12/27 06:37:28;;;;;;;1.65;1.50;;;;;;;9.63;nan;60764.44;4991202;28;20182;-66
2023/12/27 06:39:54;;;;;;;1.00;1.00;;;;;;;9.39;nan;60722.72;4991876;28;20352;-62
2023/12/27 06:42:19;;;;;;;1.30;1.20;;;;;;;9.55;nan;60766.22;4991703;28;20239;-64
2023/12/27 06:44:45;;;;;;;1.17;1.17;;;;;;;9.52;nan;60745.00;4991352;28;20569;-65
2023/12/27 06:47:11;;;;;;;1.40;1.30;;;;;;;9.75;nan;60765.19;4991412;28;20644;-64
2023/12/27 06:49:36;;;;;;;1.00;1.00;;;;;;;9.63;nan;60777.19;4991212;28;20208;-66
2023/12/27 06:52:02;;;;;;;1.10;1.10;;;;;;;9.90;nan;60796.78;4990878;28;20226;-65
2023/12/27 06:54:27;;;;;;;1.80;1.70;;;;;;;9.64;nan;60724.78;4991315;28;20623;-65
2023/12/27 06:56:52;;;;;;;1.67;1.30;;;;;;;9.94;nan;60745.19;4991712;28;20169;-63
2023/12/27 06:59:18;;;;;;;1.23;1.20;;;;;;;9.86;nan;60757.16;4991791;28;20187;-65
2023/12/27 07:01:43;;;;;;;1.45;1.38;;;;;;;9.87;nan;60775.56;4991187;28;20263;-64
2023/12/27 07:04:09;;;;;;;1.85;1.67;;;;;;;9.75;nan;60714.19;4991307;28;20256;-63
2023/12/27 07:06:34;;;;;;;1.60;1.50;;;;;;;9.68;nan;60747.69;4990980;28;20165;-62
2023/12/27 07:09:00;;;;;;;1.02;1.02;;;;;;;9.83;nan;60761.44;5006253;28;20187;-67
2023/12/27 07:11:25;;;;;;;2.25;1.40;;;;;;;10.19;nan;60803.94;4991522;28;20299;-67
2023/12/27 07:13:50;;;;;;;1.52;1.42;;;;;;;10.21;nan;60808.75;4990903;28;20177;-62
2023/12/27 07:16:16;;;;;;;2.88;2.10;;;;;;;10.42;nan;60832.38;4990927;28;20270;-66
2023/12/27 07:18:41;;;;;;;2.08;1.98;;;;;;;10.31;nan;60771.47;4990971;28;20173;-64
2023/12/27 07:21:07;;;;;;;1.75;1.65;;;;;;;10.44;nan;60959.72;4990605;28;20188;-64
2023/12/27 07:23:32;;;;;;;1.50;1.30;;;;;;;10.77;nan;60875.75;4991595;28;20189;-65
2023/12/27 07:26:00;;;;;;;1.77;1.63;;;;;;;11.04;nan;60895.94;4992992;28;20514;-64
2023/12/27 07:28:26;;;;;;;1.67;1.55;;;;;;;11.13;nan;60882.50;4995594;28;20168;-66
2023/12/27 07:30:52;;;;;;;1.40;1.30;;;;;;;11.37;nan;60896.75;4994686;28;20224;-64
2023/12/27 07:33:18;;;;;;;1.63;1.52;;;;;;;11.45;nan;60875.63;4994726;28;20169;-64
2023/12/27 07:35:43;;;;;;;1.35;1.25;;;;;;;11.47;nan;60859.38;4994369;28;20264;-67
2023/12/27 07:38:09;;;;;;;3.90;1.65;;;;;;;11.48;nan;60914.22;4994971;28;20176;-64
2023/12/27 07:40:34;;;;;;;1.10;1.10;;;;;;;11.83;nan;61114.91;4994199;28;20173;-62
2023/12/27 07:43:02;;;;;;;1.58;1.20;;;;;;;11.82;nan;60955.13;4994492;28;20223;-66
2023/12/27 07:45:27;;;;;;;1.15;1.15;;;;;;;11.98;nan;60972.03;4994502;28;20296;-63
2023/12/27 07:47:52;;;;;;;1.08;1.08;;;;;;;12.23;nan;60975.16;4992837;28;20264;-66
2023/12/27 07:50:18;;;;;;;1.38;1.27;;;;;;;12.25;nan;61033.19;4994069;28;20169;-66
2023/12/27 07:52:43;;;;;;;1.50;1.40;;;;;;;12.64;nan;61056.09;4994407;28;20211;-64
2023/12/27 07:55:09;;;;;;;1.10;1.10;;;;;;;12.42;nan;61026.16;4994254;28;20243;-66
2023/12/27 07:57:34;;;;;;;0.98;0.98;;;;;;;12.68;nan;61091.38;4994337;28;20184;-63
2023/12/27 07:59:59;;;;;;;1.63;1.52;;;;;;;12.76;nan;61023.53;4994044;28;20191;-69
2023/12/27 08:02:25;;;;;;;2.47;1.55;;;;;;;12.90;nan;61046.44;4993394;28;20223;-66
2023/12/27 08:04:50;;;;;;;1.58;1.48;;;;;;;12.83;nan;61054.47;4994290;28;20172;-63
2023/12/27 08:07:16;;;;;;;1.70;1.23;;;;;;;13.10;nan;61046.47;4994004;28;20181;-66
2023/12/27 08:09:42;;;;;;;1.92;1.83;;;;;;;13.11;nan;61075.81;4992941;28;20173;-64
2023/12/27 08:12:08;;;;;;;1.40;1.27;;;;;;;13.39;nan;61067.78;4992358;28;20307;-67
2023/12/27 08:14:33;;;;;;;1.50;1.40;;;;;;;13.51;nan;61124.94;4993425;28;20173;-66
2023/12/27 08:16:59;;;;;;;1.52;1.33;;;;;;;13.46;nan;61127.00;4993824;28;20229;-65
2023/12/27 08:19:24;;;;;;;1.23;1.20;;;;;;;13.72;nan;61094.75;4993422;28;20184;-64
2023/12/27 08:21:49;;;;;;;1.02;1.02;;;;;;;13.79;nan;61136.00;4993466;28;20173;-64
2023/12/27 08:24:15;;;;;;;1.00;1.00;;;;;;;13.80;nan;61085.81;4993528;28;20284;-65
2023/12/27 08:26:40;;;;;;;1.00;1.00;;;;;;;13.96;nan;61173.19;4600683;28;20177;-62
2023/12/27 08:29:07;;;;;;;0.90;0.90;;;;;;;13.80;nan;61151.97;4994301;28;20184;-64
2023/12/27 08:31:33;;;;;;;1.40;1.30;;;;;;;14.21;nan;61123.22;4993524;28;20276;-65
2023/12/27 08:33:59;;;;;;;1.10;1.10;;;;;;;14.25;nan;61158.56;4993601;28;20185;-66
2023/12/27 08:36:25;;;;;;;1.08;1.08;;;;;;;14.24;nan;61165.16;4993566;28;20205;-64
2023/12/27 08:38:51;;;;;;;0.82;0.82;;;;;;;14.17;nan;61363.31;4992160;28;20243;-64
2023/12/27 08:41:16;;;;;;;1.02;0.98;;;;;;;14.04;nan;61156.53;4993456;28;20176;-64
2023/12/27 08:43:42;;;;;;;0.85;0.85;;;;;;;14.31;nan;61155.06;4993112;28;20184;-64
2023/12/27 08:46:12;;;;;;;1.40;1.30;;;;;;;14.28;nan;61310.97;4993092;28;20177;-63
2023/12/27 08:48:38;;;;;;;0.90;0.90;;;;;;;14.56;nan;61209.56;4992820;28;20621;-61
2023/12/27 08:51:04;;;;;;;1.65;1.52;;;;;;;14.55;nan;61205.88;4992932;28;20212;-63
2023/12/27 08:53:29;;;;;;;1.60;1.50;;;;;;;14.67;nan;61231.13;4993003;28;20173;-63
2023/12/27 08:55:55;;;;;;;0.98;0.98;;;;;;;14.73;nan;61214.78;4992977;28;20177;-63
2023/12/27 08:58:20;;;;;;;1.20;1.20;;;;;;;14.65;nan;61208.31;5024599;28;20181;-62
2023/12/27 09:00:46;;;;;;;1.13;1.13;;;;;;;14.85;nan;61215.47;4985442;28;20216;-63
2023/12/27 09:03:11;;;;;;;1.20;1.10;;;;;;;14.81;nan;61275.81;4992676;28;20209;-65
2023/12/27 09:05:36;;;;;;;0.98;0.98;;;;;;;14.65;nan;61239.19;4993180;28;20185;-62
2023/12/27 09:08:02;;;;;;;2.35;1.17;;;;;;;14.78;nan;61199.88;4992837;28;20220;-63
2023/12/27 09:10:27;;;;;;;1.40;1.30;;;;;;;15.03;nan;61251.25;4992885;28;20177;-61
2023/12/27 09:12:53;;;;;;;2.63;1.15;;;;;;;15.12;nan;61240.81;4992465;28;20201;-61
2023/12/27 09:15:18;;;;;;;1.42;1.33;;;;;;;15.06;nan;61400.72;4992675;28;20181;-63
2023/12/27 09:17:44;;;;;;;1.50;1.40;;;;;;;15.20;nan;61273.03;4992382;28;20173;-65
2023/12/27 09:20:09;;;;;;;1.17;1.13;;;;;;;15.14;nan;61289.41;4992520;28;20208;-64
2023/12/27 09:22:35;;;;;;;1.45;1.35;;;;;;;15.43;nan;61285.59;4992615;28;20708;-63
2023/12/27 09:25:01;;;;;;;1.20;1.15;;;;;;;15.13;nan;61231.66;4992871;28;20628;-62
2023/12/27 09:27:26;;;;;;;1.10;1.10;;;;;;;15.19;nan;61238.44;4992436;28;20652;-65
2023/12/27 09:29:52;;;;;;;1.13;1.10;;;;;;;15.24;nan;61295.56;4992065;28;20177;-64
2023/12/27 09:32:18;;;;;;;1.23;1.23;;;;;;;15.54;nan;61334.09;4991738;28;20320;-64
2023/12/27 09:34:43;;;;;;;1.02;1.02;;;;;;;15.80;nan;61330.03;4992222;28;20657;-67
2023/12/27 09:37:09;;;;;;;0.90;0.90;;;;;;;15.68;nan;61326.75;4992867;28;20176;-64
2023/12/27 09:39:34;;;;;;;1.88;1.42;;;;;;;15.56;nan;61300.31;4992375;28;20264;-65
2023/12/27 09:41:59;;;;;;;1.10;1.10;;;;;;;15.74;nan;61309.78;4992287;28;20598;-66
2023/12/27 09:44:25;;;;;;;1.42;1.33;;;;;;;15.74;nan;61490.06;4992250;28;20207;-61
2023/12/27 09:46:51;;;;;;;1.30;1.08;;;;;;;15.52;nan;61295.22;4993185;28;20655;-64
2023/12/27 09:49:20;;;;;;;2.28;1.42;;;;;;;15.79;nan;61341.19;4993174;28;20236;-66
2023/12/27 09:51:47;;;;;;;1.98;1.30;;;;;;;15.83;nan;61412.69;4993344;28;20306;-64
2023/12/27 09:54:14;;;;;;;1.13;1.10;;;;;;;16.10;nan;61375.69;4993672;28;20247;-65
2023/12/27 09:56:40;;;;;;;1.02;1.00;;;;;;;16.17;nan;61393.94;4991653;28;20172;-62
2023/12/27 09:59:07;;;;;;;0.80;0.80;;;;;;;16.06;nan;61376.31;4992922;28;20181;-64
2023/12/27 10:01:40;;;;;;;1.00;1.00;;;;;;;16.11;nan;61341.31;4991738;28;20243;-64
2023/12/27 10:04:18;;;;;;;1.40;1.30;;;;;;;16.00;nan;61352.06;4992254;28;20647;-66
2023/12/27 10:06:44;;;;;;;1.02;1.00;;;;;;;16.29;nan;61407.50;4991858;28;20236;-66
2023/12/27 10:09:13;;;;;;;1.30;1.20;;;;;;;16.26;nan;61383.50;4991837;28;20176;-62
2023/12/27 10:11:41;;;;;;;1.55;1.30;;;;;;;16.41;nan;61399.91;4991533;28;20296;-66
2023/12/27 10:14:07;;;;;;;0.90;0.90;;;;;;;16.62;nan;61416.50;4991668;28;20181;-67
2023/12/27 10:16:32;;;;;;;1.02;1.02;;;;;;;16.60;nan;61406.50;4991459;28;20259;-65
2023/12/27 10:19:00;;;;;;;1.45;1.35;;;;;;;16.57;nan;61353.53;4991748;28;20630;-65
2023/12/27 10:21:25;;;;;;;1.10;1.05;;;;;;;16.57;nan;61436.63;4991746;28;20172;-63
2023/12/27 10:23:50;;;;;;;2.20;1.52;;;;;;;16.38;nan;61391.34;4993442;28;20204;-64
2023/12/27 10:26:16;;;;;;;2.08;1.30;;;;;;;16.72;nan;61409.22;4992477;28;20232;-65
2023/12/27 10:28:44;;;;;;;3.08;1.52;;;;;;;16.51;nan;61411.78;4991309;28;20258;-63
2023/12/27 10:31:09;;;;;;;2.40;1.08;;;;;;;16.69;nan;61427.00;4991666;28;20228;-67
2023/12/27 10:33:43;;;;;;;0.90;0.90;;;;;;;16.63;nan;61425.38;4991342;28;20546;-63
2023/12/27 10:36:09;;;;;;;1.33;1.17;;;;;;;16.76;nan;61444.69;4991482;28;20758;-66
2023/12/27 10:38:34;;;;;;;1.23;1.00;;;;;;;16.79;nan;61432.59;4991568;28;20215;-66
2023/12/27 10:41:03;;;;;;;1.60;1.50;;;;;;;16.72;nan;61429.84;4991236;28;20169;-65
2023/12/27 10:43:30;;;;;;;0.95;0.90;;;;;;;16.76;nan;61403.41;4991290;28;20173;-64
2023/12/27 10:45:56;;;;;;;1.23;1.15;;;;;;;16.95;nan;61471.38;4991664;28;20177;-65
2023/12/27 10:48:24;;;;;;;1.75;1.27;;;;;;;16.95;nan;61457.91;4991315;28;20306;-63
2023/12/27 10:50:51;;;;;;;1.63;1.52;;;;;;;16.89;nan;61461.41;4991147;28;20172;-65
2023/12/27 10:53:19;;;;;;;0.98;0.98;;;;;;;17.07;nan;61464.28;4991080;28;20209;-64
2023/12/27 10:55:48;;;;;;;1.98;1.42;;;;;;;17.31;nan;61501.25;4990816;28;20217;-64
2023/12/27 10:58:19;;;;;;;1.55;1.30;;;;;;;17.21;nan;61497.66;4991495;28;20173;-67
2023/12/27 11:00:46;;;;;;;2.15;1.50;;;;;;;17.18;nan;61486.53;4991250;28;20645;-62
2023/12/27 11:03:12;;;;;;;0.77;0.77;;;;;;;17.08;nan;61434.47;4993980;28;20188;-64
2023/12/27 11:05:40;;;;;;;0.70;0.70;;;;;;;17.07;nan;61448.25;4995134;28;20231;-64
2023/12/27 11:08:06;;;;;;;1.35;1.23;;;;;;;17.01;nan;61452.34;4995040;28;20176;-65
2023/12/27 11:10:35;;;;;;;1.05;1.05;;;;;;;17.15;nan;61459.91;4995414;28;20184;-64
2023/12/27 11:13:02;;;;;;;0.88;0.88;;;;;;;17.12;nan;61477.72;4994861;28;20200;-65
2023/12/27 11:15:30;;;;;;;1.55;1.15;;;;;;;17.04;nan;61478.97;4994870;28;20648;-62
2023/12/27 11:17:58;;;;;;;1.08;1.00;;;;;;;17.10;nan;61426.41;4994850;28;20173;-65
2023/12/27 11:20:25;;;;;;;0.90;0.90;;;;;;;17.15;nan;61658.69;4994843;28;20173;-66
2023/12/27 11:22:50;;;;;;;1.55;0.80;;;;;;;17.25;nan;61486.16;4994617;28;20176;-65
2023/12/27 11:25:16;;;;;;;0.80;0.80;;;;;;;17.43;nan;61483.84;4997118;28;20667;-66
2023/12/27 11:27:42;;;;;;;1.15;1.05;;;;;;;17.44;nan;61518.53;4994914;28;20259;-65
2023/12/27 11:30:11;;;;;;;1.13;1.13;;;;;;;17.32;nan;61587.59;4993034;28;20680;-62
2023/12/27 11:32:40;;;;;;;1.15;0.90;;;;;;;17.63;nan;61555.03;4995095;28;20656;-65
2023/12/27 11:35:07;;;;;;;1.17;1.02;;;;;;;17.36;nan;61460.41;4994403;28;20256;-64
2023/12/27 11:37:33;;;;;;;1.38;0.90;;;;;;;17.44;nan;61466.88;4994514;28;20168;-65
2023/12/27 11:40:00;;;;;;;0.98;0.95;;;;;;;17.54;nan;61673.97;4994788;28;20190;-66
2023/12/27 11:42:26;;;;;;;0.95;0.93;;;;;;;17.66;nan;61501.59;4994291;28;20173;-65
2023/12/27 11:44:54;;;;;;;0.88;0.88;;;;;;;17.71;nan;61515.00;4994531;28;20733;-64
2023/12/27 11:47:20;;;;;;;0.80;0.80;;;;;;;17.49;nan;61469.41;4994667;28;20173;-63